Latest Weather Observations for Warburton

IDD60801

Issued at 11:35 am CST Saturday 2 August 2014 (issued every 30 minutes, with the page automatically refreshed every 10 minutes)

About weather observations | Map of weather stations | Latest weather observations for NT | Other Formats
Station Details ID: 013011 Name: WARBURTON AIRFIELD Lat: -26.13 Lon: 126.58 Height: 459.0 m
Data from the previous 72 hours. | See also: Recent months at Warburton
Date/Time
CST
Temp
°C
App
Temp
°C
Dew
Point
Rel
Hum
%
Delta-T
°C
Wind Press
QNH
hPa
Press
MSL
hPa
Rain
since 9 am
mm
Dir
 
Spd
km/h
Gust
km/h
Spd
kts
Gust
kts
02/11:30am 15.1 9.4 0.5 37 6.4 ENE 20 28 11 15 1026.2 - 0.0
02/11:00am 13.9 8.4 0.5 40 5.8 E 19 24 10 13 1026.2 - 0.0
02/10:30am 12.4 7.2 0.2 43 5.2 E 17 24 9 13 1026.1 1025.3 0.0
02/10:00am 10.8 5.0 0.0 47 4.5 E 20 30 11 16 1025.8 - 0.0
02/09:30am 9.7 4.1 0.1 51 4.0 E 19 26 10 14 1025.6 - 0.0
02/09:00am 8.0 3.6 0.3 58 3.1 ESE 13 20 7 11 1025.3 - 0.0
02/08:30am 7.2 2.0 0.2 61 2.8 E 17 26 9 14 1025.0 - 0.0
02/08:00am 6.3 1.9 0.2 65 2.4 E 13 20 7 11 1024.7 - 0.0
02/07:30am 6.5 1.7 0.2 64 2.5 E 15 20 8 11 1024.5 1023.7 0.0
02/07:00am 7.0 1.8 0.2 62 2.7 E 17 22 9 12 1024.3 - 0.0
02/06:30am 7.2 1.7 0.4 62 2.8 ESE 19 26 10 14 1024.2 - 0.0
02/06:00am 6.7 1.5 0.4 64 2.5 ESE 17 20 9 11 1024.1 - 0.0
02/05:30am 6.6 1.4 0.3 64 2.5 SE 17 20 9 11 1024.2 - 0.0
02/05:00am 6.7 2.3 0.2 63 2.6 SE 13 19 7 10 1024.3 - 0.0
02/04:30am 6.9 2.5 0.1 62 2.7 SE 13 17 7 9 1024.5 1023.7 0.0
02/04:00am 7.3 2.5 0.1 60 2.9 ESE 15 20 8 11 1024.6 - 0.0
02/03:30am 7.6 3.2 0.1 59 3.0 SE 13 19 7 10 1024.8 - 0.0
02/03:00am 7.8 3.0 0.1 58 3.1 SE 15 22 8 12 1024.9 - 0.0
02/02:30am 7.9 3.1 -0.1 57 3.2 ESE 15 19 8 10 1025.2 - 0.0
02/02:00am 8.0 3.9 0.0 57 3.2 ESE 11 17 6 9 1025.4 - 0.0
02/01:30am 7.4 3.7 -0.3 58 3.1 SSE 9 13 5 7 1025.7 1025.0 0.0
02/01:00am 7.7 4.0 0.0 58 3.1 SE 9 13 5 7 1025.9 - 0.0
02/12:30am 8.0 4.3 0.0 57 3.2 SE 9 11 5 6 1025.9 - 0.0
02/12:00am 9.1 5.1 0.3 54 3.6 SE 11 13 6 7 1026.2 - 0.0
 
Date/Time
CST
Temp
°C
App
Temp
°C
Dew
Point
Rel
Hum
%
Delta-T
°C
Wind Press
QNH
hPa
Press
MSL
hPa
Rain
since 9 am
mm
Dir
 
Spd
km/h
Gust
km/h
Spd
kts
Gust
kts
01/11:30pm 9.8 5.4 0.4 52 3.9 SE 13 15 7 8 1026.2 - 0.0
01/11:00pm 10.1 5.8 0.7 52 4.0 SE 13 15 7 8 1025.9 - 0.0
01/10:30pm 10.6 6.2 0.6 50 4.2 SE 13 19 7 10 1025.8 1025.1 0.0
01/10:00pm 10.6 6.6 0.3 49 4.3 SE 11 15 6 8 1025.6 - 0.0
01/09:30pm 10.3 7.0 0.1 49 4.2 SE 7 9 4 5 1025.4 - 0.0
01/09:00pm 11.4 7.8 0.5 47 4.6 SE 9 11 5 6 1025.1 - 0.0
01/08:30pm 12.6 8.6 0.4 43 5.2 SE 11 13 6 7 1024.8 - 0.0
01/08:00pm 14.0 9.6 0.6 40 5.8 SE 13 17 7 9 1024.5 - 0.0
01/07:30pm 15.0 9.8 0.4 37 6.4 SE 17 24 9 13 1024.1 1023.3 0.0
01/07:00pm 15.7 10.2 0.7 36 6.6 ESE 19 28 10 15 1023.6 - 0.0
01/06:30pm 16.5 10.8 0.6 34 7.1 ESE 20 30 11 16 1023.5 - 0.0
01/06:00pm 17.0 10.6 1.0 34 7.2 ESE 24 32 13 17 1023.3 - 0.0
01/05:30pm 17.3 11.2 0.5 32 7.5 SE 22 33 12 18 1023.2 - 0.0
01/05:00pm 17.4 11.8 1.0 33 7.4 SE 20 28 11 15 1023.2 - 0.0
01/04:30pm 17.2 11.6 1.2 34 7.2 ESE 20 28 11 15 1023.4 1022.7 0.0
01/04:00pm 17.6 12.3 1.6 34 7.3 SE 19 30 10 16 1023.6 - 0.0
01/03:30pm 16.3 10.8 2.0 38 6.5 ESE 20 32 11 17 1023.9 - 0.0
01/03:00pm 16.3 10.9 2.3 39 6.4 ESE 20 28 11 15 1024.2 - 0.0
01/02:30pm 15.8 10.3 1.9 39 6.3 ESE 20 30 11 16 1024.6 - 0.0
01/02:00pm 15.1 8.8 1.6 40 6.1 SE 24 32 13 17 1025.2 - 0.0
01/01:30pm 14.7 9.0 2.6 44 5.5 ESE 22 32 12 17 1025.7 1025.0 0.0
01/01:00pm 14.1 8.4 2.7 46 5.2 ESE 22 32 12 17 1026.2 - 0.0
01/12:30pm 13.1 6.2 2.6 49 4.7 ESE 28 37 15 20 1026.6 - 0.0
01/12:00pm 12.6 6.1 2.7 51 4.5 ESE 26 35 14 19 1026.9 - 0.0
01/11:30am 12.2 5.4 2.9 53 4.2 ESE 28 37 15 20 1027.2 - 0.0
01/11:00am 11.2 3.4 2.8 56 3.7 ESE 33 44 18 24 1027.1 - 0.0
01/10:30am 10.6 2.8 2.7 58 3.5 ESE 33 48 18 26 1026.8 1026.1 0.0
01/10:00am 9.6 1.8 2.7 62 3.0 ESE 33 46 18 25 1026.6 - 0.0
01/09:30am 8.8 1.6 2.8 66 2.6 ESE 30 46 16 25 1026.5 - 0.0
01/09:00am 8.0 2.0 3.3 72 2.1 SE 24 35 13 19 1026.1 - 0.0
01/08:30am 7.5 1.9 3.6 76 1.7 SE 22 32 12 17 1025.7 - 0.0
01/08:00am 7.5 1.9 3.6 76 1.7 ESE 22 30 12 16 1025.6 - 0.0
01/07:30am 7.6 2.4 3.8 77 1.7 ESE 20 30 11 16 1025.2 1024.5 0.0
01/07:00am 7.7 2.5 3.7 76 1.8 SE 20 30 11 16 1024.9 - 0.0
01/06:30am 8.1 2.9 3.8 74 1.9 SE 20 30 11 16 1024.9 - 0.0
01/06:00am 8.5 3.3 3.8 72 2.1 SE 20 28 11 15 1024.8 - 0.0
01/05:30am 9.0 3.8 3.8 70 2.3 ESE 20 32 11 17 1024.4 - 0.0
01/05:00am 9.4 3.9 3.8 68 2.5 ESE 22 32 12 17 1024.3 - 0.0
01/04:30am 9.6 4.4 3.4 65 2.7 ESE 20 26 11 14 1024.2 1023.4 0.0
01/04:00am 10.0 4.9 3.3 63 3.0 ESE 19 26 10 14 1024.0 - 0.0
01/03:30am 10.4 5.2 3.4 62 3.1 SE 20 30 11 16 1023.9 - 0.0
01/03:00am 10.8 5.2 3.4 60 3.3 SE 22 32 12 17 1024.0 - 0.0
01/02:30am 11.2 5.2 3.5 59 3.5 SE 24 35 13 19 1023.8 - 0.0
01/02:00am 11.4 5.8 3.7 59 3.5 SE 22 33 12 18 1023.5 - 0.0
01/01:30am 12.1 6.2 3.9 57 3.8 SE 24 32 13 17 1023.3 1022.6 0.0
01/01:00am 12.7 7.1 3.6 54 4.2 SE 22 30 12 16 1023.0 - 0.0
01/12:30am 13.2 8.0 3.6 52 4.4 SE 20 28 11 15 1023.1 - 0.0
01/12:00am 13.8 8.6 3.6 50 4.7 SE 20 28 11 15 1023.1 - 0.0
 
Date/Time
CST
Temp
°C
App
Temp
°C
Dew
Point
Rel
Hum
%
Delta-T
°C
Wind Press
QNH
hPa
Press
MSL
hPa
Rain
since 9 am
mm
Dir
 
Spd
km/h
Gust
km/h
Spd
kts
Gust
kts
31/11:30pm 14.0 9.4 3.8 50 4.8 SE 17 26 9 14 1022.9 - 0.0
31/11:00pm 14.4 10.2 3.8 49 5.0 SSE 15 22 8 12 1023.0 - 0.0
31/10:30pm 14.3 10.4 3.5 48 5.0 SSE 13 17 7 9 1023.0 1022.7 0.0
31/10:00pm 14.7 10.8 3.2 46 5.3 SSE 13 15 7 8 1022.7 - 0.0
31/09:30pm 15.4 11.5 3.2 44 5.7 SSE 13 17 7 9 1022.3 - 0.0
31/09:00pm 15.7 12.2 3.5 44 5.7 SSE 11 15 6 8 1021.9 - 0.0
31/08:30pm 17.0 13.1 3.3 40 6.5 S 13 19 7 10 1021.6 - 0.0
31/08:00pm 17.2 13.6 3.1 39 6.6 S 11 13 6 7 1021.2 - 0.0
31/07:30pm 18.6 14.6 2.9 35 7.4 S 13 17 7 9 1020.9 1020.6 0.0
31/07:00pm 20.2 15.8 2.5 31 8.4 SSW 15 19 8 10 1020.6 - 0.0
31/06:30pm 21.4 16.6 2.6 29 9.1 SSW 17 24 9 13 1020.3 - 0.0
31/06:00pm 22.0 16.6 2.7 28 9.4 SSW 20 28 11 15 1020.1 - 0.0
31/05:30pm 23.0 18.2 2.5 26 10.0 S 17 26 9 14 1020.0 - 0.0
31/05:00pm 23.3 17.9 2.2 25 10.2 SW 20 28 11 15 1019.9 - 0.0
31/04:30pm 23.0 18.2 2.5 26 9.9 SW 17 30 9 16 1020.0 1019.7 0.0
31/04:00pm 22.9 17.7 2.4 26 9.9 S 19 26 10 14 1020.1 - 0.0
31/03:30pm 23.1 18.7 2.6 26 10.0 SW 15 30 8 16 1020.3 - 0.0
31/03:00pm 23.1 18.3 2.6 26 10.0 SW 17 24 9 13 1020.6 - 0.0
31/02:30pm 22.3 17.3 1.3 25 9.9 SSW 17 24 9 13 1020.8 - 0.0
31/02:00pm 22.3 17.8 1.9 26 9.8 SSW 15 19 8 10 1021.1 - 0.0
31/01:30pm 21.3 17.1 1.6 27 9.3 SW 13 22 7 12 1021.6 1021.3 0.0
31/01:00pm 21.2 17.4 1.5 27 9.3 SW 11 17 6 9 1022.0 - 0.0
31/12:30pm 20.2 15.8 0.6 27 9.0 SW 13 19 7 10 1022.3 - 0.0
31/12:00pm 19.5 15.4 0.0 27 8.8 SW 11 17 6 9 1022.5 - 0.0
31/11:30am 18.8 14.2 -1.1 26 8.7 SSW 13 17 7 9 1022.7 - 0.0
31/11:00am 17.9 13.7 -0.8 28 8.2 SSW 11 17 6 9 1022.8 - 0.0
31/10:30am 16.7 12.6 -0.5 31 7.5 WSW 11 17 6 9 1023.0 1022.7 0.0
31/10:00am 14.6 12.7 0.5 38 6.2 CALM 0 0 0 0 1022.2 - 0.0
31/09:30am 11.0 9.0 0.1 47 4.6 CALM 0 0 0 0 1022.0 - 0.0
31/09:00am 7.6 5.2 -0.1 58 3.1 SSE 2 6 1 3 1021.8 - 0.0
31/08:30am 4.7 1.9 -0.5 69 2.0 S 4 6 2 3 1021.5 - 0.0
31/08:00am 3.7 0.8 -1.1 71 1.8 E 4 7 2 4 1021.0 - 0.0
31/07:30am 4.1 1.7 -0.5 72 1.8 NNE 2 6 1 3 1020.6 1020.3 0.0
31/07:00am 4.3 2.2 -0.9 69 2.0 CALM 0 0 0 0 1020.5 - 0.0
31/06:30am 4.3 2.2 -1.1 68 2.0 CALM 0 0 0 0 1020.3 - 0.0
31/06:00am 4.7 2.6 -0.9 67 2.1 CALM 0 0 0 0 1020.2 - 0.0
31/05:30am 5.0 2.9 -0.8 66 2.2 CALM 0 0 0 0 1020.2 - 0.0
31/05:00am 5.4 2.5 -0.8 64 2.4 SE 4 7 2 4 1020.2 - 0.0
31/04:30am 5.7 2.2 -1.0 62 2.6 NNE 7 9 4 5 1020.3 1020.0 0.0
31/04:00am 5.9 1.4 -0.6 63 2.5 NNE 13 13 7 7 1020.5 - 0.0
31/03:30am 5.4 2.0 -0.4 66 2.3 NNE 7 9 4 5 1020.9 - 0.0
31/03:00am 6.0 4.0 -0.3 64 2.5 CALM 0 0 0 0 1021.0 - 0.0
31/02:30am 7.0 3.8 -0.2 60 2.9 N 6 7 3 4 1021.2 - 0.0
31/02:00am 7.0 5.0 0.0 61 2.8 CALM 0 0 0 0 1021.2 - 0.0
31/01:30am 7.6 5.7 0.3 60 3.0 CALM 0 0 0 0 1021.0 1020.7 0.0
31/01:00am 8.5 5.8 0.2 56 3.4 NW 4 6 2 3 1021.0 - 0.0
31/12:30am 9.0 5.7 0.2 54 3.6 NNE 7 9 4 5 1021.0 - 0.0
31/12:00am 9.3 6.2 0.2 53 3.8 NNE 6 7 3 4 1021.1 - 0.0
 
Date/Time
CST
Temp
°C
App
Temp
°C
Dew
Point
Rel
Hum
%
Delta-T
°C
Wind Press
QNH
hPa
Press
MSL
hPa
Rain
since 9 am
mm
Dir
 
Spd
km/h
Gust
km/h
Spd
kts
Gust
kts
30/11:30pm 10.1 8.1 0.2 50 4.1 CALM 0 0 0 0 1021.2 - 0.0
30/11:00pm 11.9 10.0 0.4 45 4.9 CALM 0 0 0 0 1021.2 - 0.0
30/10:30pm 12.1 9.4 0.2 44 5.0 SE 4 7 2 4 1021.1 1020.8 0.0
30/10:00pm 14.0 10.7 0.3 39 5.9 S 7 9 4 5 1021.1 - 0.0
30/09:30pm 16.2 12.9 0.3 34 7.0 SW 7 11 4 6 1021.1 - 0.0
30/09:00pm 17.0 13.4 0.6 33 7.3 SSW 9 11 5 6 1020.9 - 0.0
30/08:30pm 18.0 14.5 1.5 33 7.6 SW 9 11 5 6 1020.7 - 0.0
30/08:00pm 19.4 16.0 1.9 31 8.2 SW 9 13 5 7 1020.5 - 0.0
30/07:30pm 20.2 16.5 2.1 30 8.5 SW 11 13 6 7 1020.2 1019.9 0.0
30/07:00pm 21.8 18.4 2.0 27 9.5 WSW 9 13 5 7 1020.0 - 0.0
30/06:30pm 23.3 18.8 2.2 25 10.2 W 15 20 8 11 1019.9 - 0.0
30/06:00pm 23.7 19.2 2.0 24 10.5 WSW 15 22 8 12 1019.8 - 0.0
30/05:30pm 23.9 19.8 2.1 24 10.6 W 13 28 7 15 1019.8 - 0.0
30/05:00pm 24.0 19.1 2.2 24 10.6 W 17 26 9 14 1020.0 - 0.0
30/04:30pm 24.3 19.9 2.5 24 10.7 W 15 26 8 14 1020.3 1020.0 0.0
30/04:00pm 23.8 19.7 2.0 24 10.6 WSW 13 24 7 13 1020.4 - 0.0
30/03:30pm 24.1 20.0 2.3 24 10.6 W 13 20 7 11 1020.6 - 0.0
30/03:00pm 24.1 20.0 2.3 24 10.6 WSW 13 20 7 11 1021.0 - 0.0
30/02:30pm 23.9 19.5 2.7 25 10.4 W 15 24 8 13 1021.5 - 0.0
30/02:00pm 23.3 20.0 2.7 26 10.1 WNW 9 17 5 9 1022.0 - 0.0
30/01:30pm 23.3 19.7 2.7 26 10.0 WNW 11 20 6 11 1022.7 1022.4 0.0

Other Formats:

Comma delimited format used in spreadsheet applications
http://www.bom.gov.au/fwo/IDD60801/IDD60801.94457.axf

JavaScript Object Notation format (JSON) in row-major order
http://www.bom.gov.au/fwo/IDD60801/IDD60801.94457.json